sensor_id;sensor_type;location;lat;lon;timestamp;pressure;altitude;pressure_sealevel;temperature;humidity
5574;BME280;2563;52.242;7.956;2023-05-14T00:00:13;100940.50;;;9.84;100.00
5574;BME280;2563;52.242;7.956;2023-05-14T00:02:38;100939.72;;;9.80;100.00
5574;BME280;2563;52.242;7.956;2023-05-14T00:05:04;100934.50;;;9.83;100.00
5574;BME280;2563;52.242;7.956;2023-05-14T00:07:29;100939.66;;;9.83;100.00
5574;BME280;2563;52.242;7.956;2023-05-14T00:09:59;100937.97;;;9.82;100.00
5574;BME280;2563;52.242;7.956;2023-05-14T00:12:27;100950.00;;;9.80;100.00
5574;BME280;2563;52.242;7.956;2023-05-14T00:14:54;100953.41;;;9.80;100.00
5574;BME280;2563;52.242;7.956;2023-05-14T00:17:20;100956.00;;;9.79;100.00
5574;BME280;2563;52.242;7.956;2023-05-14T00:19:45;100953.47;;;9.76;100.00
5574;BME280;2563;52.242;7.956;2023-05-14T00:22:10;100955.13;;;9.80;100.00
5574;BME280;2563;52.242;7.956;2023-05-14T00:24:36;100953.41;;;9.79;100.00
5574;BME280;2563;52.242;7.956;2023-05-14T00:27:02;100950.03;;;9.77;100.00
5574;BME280;2563;52.242;7.956;2023-05-14T00:29:27;100966.31;;;9.76;100.00
5574;BME280;2563;52.242;7.956;2023-05-14T00:31:53;100958.66;;;9.73;100.00
5574;BME280;2563;52.242;7.956;2023-05-14T00:34:18;100968.09;;;9.72;100.00
5574;BME280;2563;52.242;7.956;2023-05-14T00:36:44;100980.97;;;9.71;100.00
5574;BME280;2563;52.242;7.956;2023-05-14T00:39:09;100984.41;;;9.70;100.00
5574;BME280;2563;52.242;7.956;2023-05-14T00:41:34;100987.88;;;9.66;100.00
5574;BME280;2563;52.242;7.956;2023-05-14T00:44:00;100990.47;;;9.66;100.00
5574;BME280;2563;52.242;7.956;2023-05-14T00:46:26;100995.56;;;9.69;100.00
5574;BME280;2563;52.242;7.956;2023-05-14T00:48:52;100988.72;;;9.68;100.00
5574;BME280;2563;52.242;7.956;2023-05-14T00:51:17;100996.41;;;9.69;100.00
5574;BME280;2563;52.242;7.956;2023-05-14T00:53:45;101001.66;;;9.62;100.00
5574;BME280;2563;52.242;7.956;2023-05-14T00:56:10;101003.44;;;9.56;100.00
5574;BME280;2563;52.242;7.956;2023-05-14T00:58:36;101015.38;;;9.61;100.00
5574;BME280;2563;52.242;7.956;2023-05-14T01:01:01;101015.44;;;9.54;100.00
5574;BME280;2563;52.242;7.956;2023-05-14T01:03:28;101012.94;;;9.50;100.00
5574;BME280;2563;52.242;7.956;2023-05-14T01:06:17;101012.97;;;9.45;100.00
5574;BME280;2563;52.242;7.956;2023-05-14T01:11:31;101025.09;;;9.37;100.00
5574;BME280;2563;52.242;7.956;2023-05-14T01:14:30;101019.06;;;9.38;100.00
5574;BME280;2563;52.242;7.956;2023-05-14T01:16:58;101024.28;;;9.32;100.00
5574;BME280;2563;52.242;7.956;2023-05-14T01:19:43;101027.72;;;9.31;100.00
5574;BME280;2563;52.242;7.956;2023-05-14T01:22:09;101026.06;;;9.24;100.00
5574;BME280;2563;52.242;7.956;2023-05-14T01:24:35;101034.63;;;9.26;100.00
5574;BME280;2563;52.242;7.956;2023-05-14T01:28:14;101033.06;;;9.12;100.00
5574;BME280;2563;52.242;7.956;2023-05-14T01:30:23;101031.44;;;9.02;100.00
5574;BME280;2563;52.242;7.956;2023-05-14T01:32:55;101044.28;;;9.04;100.00
5574;BME280;2563;52.242;7.956;2023-05-14T01:35:24;101046.94;;;8.93;100.00
5574;BME280;2563;52.242;7.956;2023-05-14T01:37:55;101051.97;;;9.02;100.00
5574;BME280;2563;52.242;7.956;2023-05-14T01:40:22;101069.97;;;9.01;100.00
5574;BME280;2563;52.242;7.956;2023-05-14T01:42:49;101076.06;;;8.89;100.00
5574;BME280;2563;52.242;7.956;2023-05-14T01:45:16;101071.78;;;8.91;100.00
5574;BME280;2563;52.242;7.956;2023-05-14T01:47:42;101071.78;;;8.88;100.00
5574;BME280;2563;52.242;7.956;2023-05-14T01:50:07;101076.13;;;8.84;100.00
5574;BME280;2563;52.242;7.956;2023-05-14T01:52:33;101077.81;;;8.85;100.00
5574;BME280;2563;52.242;7.956;2023-05-14T01:54:58;101093.16;;;8.90;100.00
5574;BME280;2563;52.242;7.956;2023-05-14T01:57:24;101097.50;;;8.83;100.00
5574;BME280;2563;52.242;7.956;2023-05-14T01:59:49;101098.38;;;8.81;100.00
5574;BME280;2563;52.242;7.956;2023-05-14T02:02:15;101093.28;;;8.78;100.00
5574;BME280;2563;52.242;7.956;2023-05-14T02:04:40;101089.06;;;8.72;100.00
5574;BME280;2563;52.242;7.956;2023-05-14T02:07:05;101101.91;;;8.67;100.00
5574;BME280;2563;52.242;7.956;2023-05-14T02:09:31;101112.22;;;8.64;100.00
5574;BME280;2563;52.242;7.956;2023-05-14T02:11:56;101103.63;;;8.67;100.00
5574;BME280;2563;52.242;7.956;2023-05-14T02:14:21;101111.38;;;8.59;100.00
5574;BME280;2563;52.242;7.956;2023-05-14T02:16:47;101107.94;;;8.62;100.00
5574;BME280;2563;52.242;7.956;2023-05-14T02:19:12;101113.91;;;8.65;100.00
5574;BME280;2563;52.242;7.956;2023-05-14T02:21:38;101127.63;;;8.64;100.00
5574;BME280;2563;52.242;7.956;2023-05-14T02:24:03;101130.16;;;8.67;100.00
5574;BME280;2563;52.242;7.956;2023-05-14T02:26:29;101128.50;;;8.60;100.00
5574;BME280;2563;52.242;7.956;2023-05-14T02:28:54;101127.59;;;8.66;100.00
5574;BME280;2563;52.242;7.956;2023-05-14T02:31:19;101128.47;;;8.65;100.00
5574;BME280;2563;52.242;7.956;2023-05-14T02:33:45;101113.97;;;8.56;100.00
5574;BME280;2563;52.242;7.956;2023-05-14T02:36:10;101110.59;;;8.51;100.00
5574;BME280;2563;52.242;7.956;2023-05-14T02:38:35;101117.41;;;8.55;100.00
5574;BME280;2563;52.242;7.956;2023-05-14T02:41:01;101114.84;;;8.52;100.00
5574;BME280;2563;52.242;7.956;2023-05-14T02:43:26;101108.00;;;8.49;100.00
5574;BME280;2563;52.242;7.956;2023-05-14T02:45:52;101108.88;;;8.53;100.00
5574;BME280;2563;52.242;7.956;2023-05-14T02:48:17;101117.44;;;8.49;100.00
5574;BME280;2563;52.242;7.956;2023-05-14T02:50:42;101120.06;;;8.41;100.00
5574;BME280;2563;52.242;7.956;2023-05-14T02:53:08;101122.63;;;8.37;100.00
5574;BME280;2563;52.242;7.956;2023-05-14T02:55:34;101127.75;;;8.43;100.00
5574;BME280;2563;52.242;7.956;2023-05-14T02:57:59;101126.88;;;8.42;100.00
5574;BME280;2563;52.242;7.956;2023-05-14T03:00:25;101121.75;;;8.38;100.00
5574;BME280;2563;52.242;7.956;2023-05-14T03:02:50;101117.50;;;8.34;100.00
5574;BME280;2563;52.242;7.956;2023-05-14T03:05:15;101116.66;;;8.31;100.00
5574;BME280;2563;52.242;7.956;2023-05-14T03:07:40;101120.91;;;8.32;100.00
5574;BME280;2563;52.242;7.956;2023-05-14T03:10:06;101124.34;;;8.31;100.00
5574;BME280;2563;52.242;7.956;2023-05-14T03:12:32;101121.78;;;8.30;100.00
5574;BME280;2563;52.242;7.956;2023-05-14T03:14:57;101116.72;;;8.16;100.00
5574;BME280;2563;52.242;7.956;2023-05-14T03:17:22;101120.13;;;8.18;100.00
5574;BME280;2563;52.242;7.956;2023-05-14T03:19:48;101130.41;;;8.18;100.00
5574;BME280;2563;52.242;7.956;2023-05-14T03:22:13;101138.09;;;8.18;100.00
5574;BME280;2563;52.242;7.956;2023-05-14T03:24:38;101143.28;;;8.06;100.00
5574;BME280;2563;52.242;7.956;2023-05-14T03:27:04;101146.66;;;8.17;100.00
5574;BME280;2563;52.242;7.956;2023-05-14T03:29:30;101150.94;;;8.09;100.00
5574;BME280;2563;52.242;7.956;2023-05-14T03:31:55;101155.25;;;8.07;100.00
5574;BME280;2563;52.242;7.956;2023-05-14T03:34:21;101150.97;;;8.07;100.00
5574;BME280;2563;52.242;7.956;2023-05-14T03:36:46;101156.97;;;8.05;100.00
5574;BME280;2563;52.242;7.956;2023-05-14T03:39:12;101161.25;;;7.92;100.00
5574;BME280;2563;52.242;7.956;2023-05-14T03:41:40;101160.41;;;8.01;100.00
5574;BME280;2563;52.242;7.956;2023-05-14T03:44:05;101168.91;;;8.09;100.00
5574;BME280;2563;52.242;7.956;2023-05-14T03:46:31;101177.47;;;7.99;100.00
5574;BME280;2563;52.242;7.956;2023-05-14T03:48:56;101174.06;;;8.03;100.00
5574;BME280;2563;52.242;7.956;2023-05-14T03:51:22;101176.63;;;8.03;100.00
5574;BME280;2563;52.242;7.956;2023-05-14T03:53:47;101176.59;;;8.04;100.00
5574;BME280;2563;52.242;7.956;2023-05-14T03:56:12;101192.00;;;8.03;100.00
5574;BME280;2563;52.242;7.956;2023-05-14T03:58:38;101191.13;;;8.04;100.00
5574;BME280;2563;52.242;7.956;2023-05-14T04:01:03;101206.53;;;8.04;100.00
5574;BME280;2563;52.242;7.956;2023-05-14T04:03:28;101214.22;;;8.02;100.00
5574;BME280;2563;52.242;7.956;2023-05-14T04:05:54;101215.03;;;8.18;100.00
5574;BME280;2563;52.242;7.956;2023-05-14T04:08:19;101221.81;;;8.31;100.00
5574;BME280;2563;52.242;7.956;2023-05-14T04:10:45;101220.09;;;8.37;100.00
5574;BME280;2563;52.242;7.956;2023-05-14T04:13:10;101225.25;;;8.43;100.00
5574;BME280;2563;52.242;7.956;2023-05-14T04:15:35;101226.91;;;8.50;100.00
5574;BME280;2563;52.242;7.956;2023-05-14T04:18:03;101241.44;;;8.49;100.00
5574;BME280;2563;52.242;7.956;2023-05-14T04:20:28;101242.28;;;8.53;100.00
5574;BME280;2563;52.242;7.956;2023-05-14T04:22:54;101246.53;;;8.59;100.00
5574;BME280;2563;52.242;7.956;2023-05-14T04:25:19;101256.75;;;8.62;100.00
5574;BME280;2563;52.242;7.956;2023-05-14T04:27:45;101250.78;;;8.67;100.00
5574;BME280;2563;52.242;7.956;2023-05-14T04:30:10;101255.84;;;8.77;100.00
5574;BME280;2563;52.242;7.956;2023-05-14T04:32:36;101247.25;;;8.84;100.00
5574;BME280;2563;52.242;7.956;2023-05-14T04:35:02;101248.94;;;8.91;100.00
5574;BME280;2563;52.242;7.956;2023-05-14T04:37:28;101247.13;;;9.02;100.00
5574;BME280;2563;52.242;7.956;2023-05-14T04:39:54;101258.16;;;9.20;100.00
5574;BME280;2563;52.242;7.956;2023-05-14T04:42:19;101272.63;;;9.30;100.00
5574;BME280;2563;52.242;7.956;2023-05-14T04:44:45;101262.38;;;9.27;100.00
5574;BME280;2563;52.242;7.956;2023-05-14T04:47:10;101262.34;;;9.31;100.00
5574;BME280;2563;52.242;7.956;2023-05-14T04:49:36;101261.44;;;9.35;100.00
5574;BME280;2563;52.242;7.956;2023-05-14T04:52:02;101249.50;;;9.30;100.00
5574;BME280;2563;52.242;7.956;2023-05-14T04:54:27;101246.97;;;9.24;100.00
5574;BME280;2563;52.242;7.956;2023-05-14T04:56:52;101241.91;;;9.14;100.00
5574;BME280;2563;52.242;7.956;2023-05-14T04:59:20;101235.88;;;9.19;100.00
5574;BME280;2563;52.242;7.956;2023-05-14T05:01:45;101236.69;;;9.24;100.00
5574;BME280;2563;52.242;7.956;2023-05-14T05:04:10;101236.72;;;9.21;100.00
5574;BME280;2563;52.242;7.956;2023-05-14T05:06:36;101229.03;;;9.22;100.00
5574;BME280;2563;52.242;7.956;2023-05-14T05:09:01;101229.84;;;9.26;100.00
5574;BME280;2563;52.242;7.956;2023-05-14T05:11:27;101234.13;;;9.24;100.00
5574;BME280;2563;52.242;7.956;2023-05-14T05:13:52;101221.31;;;9.22;100.00
5574;BME280;2563;52.242;7.956;2023-05-14T05:16:17;101227.25;;;9.30;100.00
5574;BME280;2563;52.242;7.956;2023-05-14T05:18:43;101222.06;;;9.35;100.00
5574;BME280;2563;52.242;7.956;2023-05-14T05:21:09;101216.03;;;9.39;100.00
5574;BME280;2563;52.242;7.956;2023-05-14T05:23:35;101215.94;;;9.50;100.00
5574;BME280;2563;52.242;7.956;2023-05-14T05:26:00;101216.75;;;9.55;100.00
5574;BME280;2563;52.242;7.956;2023-05-14T05:28:25;101216.63;;;9.67;100.00
5574;BME280;2563;52.242;7.956;2023-05-14T05:30:51;101213.13;;;9.76;100.00
5574;BME280;2563;52.242;7.956;2023-05-14T05:33:16;101224.84;;;10.01;100.00
5574;BME280;2563;52.242;7.956;2023-05-14T05:35:41;101225.38;;;10.31;100.00
5574;BME280;2563;52.242;7.956;2023-05-14T05:38:08;101231.72;;;10.72;100.00
5574;BME280;2563;52.242;7.956;2023-05-14T05:40:34;101242.22;;;11.19;100.00
5574;BME280;2563;52.242;7.956;2023-05-14T05:42:59;101228.91;;;11.45;100.00
5574;BME280;2563;52.242;7.956;2023-05-14T05:45:24;101227.09;;;11.50;100.00
5574;BME280;2563;52.242;7.956;2023-05-14T05:47:50;101219.09;;;11.65;100.00
5574;BME280;2563;52.242;7.956;2023-05-14T05:50:15;101198.13;;;11.84;100.00
5574;BME280;2563;52.242;7.956;2023-05-14T05:52:40;101190.81;;;12.07;100.00
5574;BME280;2563;52.242;7.956;2023-05-14T05:55:06;101179.97;;;12.33;100.00
5574;BME280;2563;52.242;7.956;2023-05-14T05:57:31;101159.78;;;12.49;100.00
5574;BME280;2563;52.242;7.956;2023-05-14T05:59:57;101136.75;;;12.40;100.00
5574;BME280;2563;52.242;7.956;2023-05-14T06:02:22;101105.13;;;12.32;100.00
5574;BME280;2563;52.242;7.956;2023-05-14T06:04:49;101104.50;;;12.60;100.00
5574;BME280;2563;52.242;7.956;2023-05-14T06:07:14;101079.50;;;12.60;100.00
5574;BME280;2563;52.242;7.956;2023-05-14T06:09:40;101061.41;;;12.96;100.00
5574;BME280;2563;52.242;7.956;2023-05-14T06:12:05;101042.28;;;13.02;100.00
5574;BME280;2563;52.242;7.956;2023-05-14T06:14:31;101031.03;;;13.37;100.00
5574;BME280;2563;52.242;7.956;2023-05-14T06:16:56;101017.00;;;13.75;100.00
5574;BME280;2563;52.242;7.956;2023-05-14T06:19:22;101010.06;;;14.04;100.00
5574;BME280;2563;52.242;7.956;2023-05-14T06:21:48;100993.59;;;14.33;100.00
5574;BME280;2563;52.242;7.956;2023-05-14T06:24:13;100973.13;;;14.52;100.00
5574;BME280;2563;52.242;7.956;2023-05-14T06:26:38;100941.53;;;14.41;100.00
5574;BME280;2563;52.242;7.956;2023-05-14T06:29:04;100918.28;;;14.66;100.00
5574;BME280;2563;52.242;7.956;2023-05-14T06:31:29;100906.31;;;14.62;100.00
5574;BME280;2563;52.242;7.956;2023-05-14T06:33:55;100891.75;;;14.83;100.00
5574;BME280;2563;52.242;7.956;2023-05-14T06:36:20;100871.66;;;14.89;100.00
5574;BME280;2563;52.242;7.956;2023-05-14T06:38:45;100868.63;;;15.24;100.00
5574;BME280;2563;52.242;7.956;2023-05-14T06:41:11;100858.50;;;15.40;100.00
5574;BME280;2563;52.242;7.956;2023-05-14T06:43:36;100849.91;;;15.60;100.00
5574;BME280;2563;52.242;7.956;2023-05-14T06:46:01;100849.28;;;16.17;100.00
5574;BME280;2563;52.242;7.956;2023-05-14T06:48:27;100849.56;;;16.51;100.00
5574;BME280;2563;52.242;7.956;2023-05-14T06:50:53;100856.53;;;17.09;100.00
5574;BME280;2563;52.242;7.956;2023-05-14T06:53:19;100840.91;;;16.90;100.00
5574;BME280;2563;52.242;7.956;2023-05-14T06:55:46;100817.72;;;17.04;100.00
5574;BME280;2563;52.242;7.956;2023-05-14T06:58:12;100797.91;;;17.01;100.00
5574;BME280;2563;52.242;7.956;2023-05-14T07:00:37;100801.81;;;17.47;100.00
5574;BME280;2563;52.242;7.956;2023-05-14T07:03:02;100795.47;;;18.04;100.00
5574;BME280;2563;52.242;7.956;2023-05-14T07:05:28;100789.16;;;18.26;100.00
5574;BME280;2563;52.242;7.956;2023-05-14T07:07:53;100800.94;;;18.33;100.00
5574;BME280;2563;52.242;7.956;2023-05-14T07:10:19;100811.28;;;18.68;100.00
5574;BME280;2563;52.242;7.956;2023-05-14T07:12:44;100819.53;;;19.08;100.00
5574;BME280;2563;52.242;7.956;2023-05-14T07:15:10;100842.84;;;19.43;100.00
5574;BME280;2563;52.242;7.956;2023-05-14T07:17:36;100859.56;;;19.54;100.00
5574;BME280;2563;52.242;7.956;2023-05-14T07:20:02;100873.22;;;19.44;100.00
5574;BME280;2563;52.242;7.956;2023-05-14T07:22:27;100891.78;;;19.23;100.00
5574;BME280;2563;52.242;7.956;2023-05-14T07:24:52;100891.41;;;19.45;100.00
5574;BME280;2563;52.242;7.956;2023-05-14T07:27:18;100869.41;;;20.11;100.00
5574;BME280;2563;52.242;7.956;2023-05-14T07:29:43;100853.00;;;20.52;100.00
5574;BME280;2563;52.242;7.956;2023-05-14T07:32:09;100830.38;;;20.80;100.00
5574;BME280;2563;52.242;7.956;2023-05-14T07:34:34;100822.16;;;20.43;100.00
5574;BME280;2563;52.242;7.956;2023-05-14T07:37:00;100820.81;;;20.93;100.00
5574;BME280;2563;52.242;7.956;2023-05-14T07:39:26;100798.50;;;21.15;100.00
5574;BME280;2563;52.242;7.956;2023-05-14T07:41:51;100798.34;;;21.03;100.00
5574;BME280;2563;52.242;7.956;2023-05-14T07:44:19;100797.59;;;21.01;100.00
5574;BME280;2563;52.242;7.956;2023-05-14T07:46:44;100799.09;;;21.06;100.00
5574;BME280;2563;52.242;7.956;2023-05-14T07:49:10;100789.84;;;21.54;100.00
5574;BME280;2563;52.242;7.956;2023-05-14T07:51:35;100777.75;;;21.79;100.00
5574;BME280;2563;52.242;7.956;2023-05-14T07:54:00;100784.38;;;21.44;100.00
5574;BME280;2563;52.242;7.956;2023-05-14T07:56:26;100792.69;;;21.51;100.00
5574;BME280;2563;52.242;7.956;2023-05-14T07:58:51;100777.84;;;22.03;100.00
5574;BME280;2563;52.242;7.956;2023-05-14T08:01:17;100760.81;;;22.47;100.00
5574;BME280;2563;52.242;7.956;2023-05-14T08:03:42;100777.00;;;22.15;100.00
5574;BME280;2563;52.242;7.956;2023-05-14T08:06:08;100812.91;;;21.62;100.00
5574;BME280;2563;52.242;7.956;2023-05-14T08:08:33;100885.59;;;21.85;100.00
5574;BME280;2563;52.242;7.956;2023-05-14T08:10:59;100894.47;;;21.70;100.00
5574;BME280;2563;52.242;7.956;2023-05-14T08:13:24;100858.63;;;21.71;100.00
5574;BME280;2563;52.242;7.956;2023-05-14T08:15:50;100746.59;;;21.87;100.00
5574;BME280;2563;52.242;7.956;2023-05-14T08:18:15;100670.91;;;22.45;100.00
5574;BME280;2563;52.242;7.956;2023-05-14T08:20:41;100686.41;;;22.48;100.00
5574;BME280;2563;52.242;7.956;2023-05-14T08:23:06;100691.91;;;22.19;100.00
5574;BME280;2563;52.242;7.956;2023-05-14T08:25:33;100688.19;;;22.71;100.00
5574;BME280;2563;52.242;7.956;2023-05-14T08:27:58;100734.00;;;22.67;100.00
5574;BME280;2563;52.242;7.956;2023-05-14T08:30:24;100744.38;;;22.93;100.00
5574;BME280;2563;52.242;7.956;2023-05-14T08:32:50;100789.19;;;23.27;100.00
5574;BME280;2563;52.242;7.956;2023-05-14T08:35:16;100894.97;;;22.92;100.00
5574;BME280;2563;52.242;7.956;2023-05-14T08:37:41;100871.66;;;23.13;100.00
5574;BME280;2563;52.242;7.956;2023-05-14T08:40:07;100919.34;;;22.94;100.00
5574;BME280;2563;52.242;7.956;2023-05-14T08:42:33;100881.59;;;22.58;100.00
5574;BME280;2563;52.242;7.956;2023-05-14T08:45:00;100906.88;;;22.59;100.00
5574;BME280;2563;52.242;7.956;2023-05-14T08:47:29;100940.78;;;22.62;100.00
5574;BME280;2563;52.242;7.956;2023-05-14T08:50:04;100981.06;;;23.12;100.00
5574;BME280;2563;52.242;7.956;2023-05-14T08:52:31;101022.66;;;23.31;100.00
5574;BME280;2563;52.242;7.956;2023-05-14T08:55:02;101021.53;;;23.60;100.00
5574;BME280;2563;52.242;7.956;2023-05-14T08:57:29;101029.91;;;23.77;100.00
5574;BME280;2563;52.242;7.956;2023-05-14T08:59:56;101038.56;;;23.67;100.00
5574;BME280;2563;52.242;7.956;2023-05-14T09:02:27;101040.69;;;23.98;100.00
5574;BME280;2563;52.242;7.956;2023-05-14T09:04:55;101035.00;;;23.55;100.00
5574;BME280;2563;52.242;7.956;2023-05-14T09:07:21;101040.81;;;23.47;100.00
5574;BME280;2563;52.242;7.956;2023-05-14T09:09:48;101038.38;;;24.18;100.00
5574;BME280;2563;52.242;7.956;2023-05-14T09:12:13;101032.06;;;23.96;100.00
5574;BME280;2563;52.242;7.956;2023-05-14T09:14:38;101034.41;;;23.51;100.00
5574;BME280;2563;52.242;7.956;2023-05-14T09:17:04;101038.78;;;23.64;100.00
5574;BME280;2563;52.242;7.956;2023-05-14T09:19:30;101024.75;;;23.39;100.00
5574;BME280;2563;52.242;7.956;2023-05-14T09:21:58;101016.94;;;23.50;100.00
5574;BME280;2563;52.242;7.956;2023-05-14T09:24:25;101015.88;;;23.53;100.00
5574;BME280;2563;52.242;7.956;2023-05-14T09:26:54;101021.28;;;23.88;100.00
5574;BME280;2563;52.242;7.956;2023-05-14T09:29:20;101010.31;;;23.94;99.45
5574;BME280;2563;52.242;7.956;2023-05-14T09:31:46;101009.00;;;24.00;98.19
5574;BME280;2563;52.242;7.956;2023-05-14T09:34:26;101016.03;;;24.24;97.91
5574;BME280;2563;52.242;7.956;2023-05-14T09:37:05;101001.78;;;24.15;94.39
5574;BME280;2563;52.242;7.956;2023-05-14T09:39:33;101000.97;;;24.50;94.88
5574;BME280;2563;52.242;7.956;2023-05-14T09:41:58;101008.44;;;24.43;95.57
5574;BME280;2563;52.242;7.956;2023-05-14T09:44:24;101003.66;;;25.06;95.66
5574;BME280;2563;52.242;7.956;2023-05-14T09:46:50;100999.56;;;25.13;91.04
5574;BME280;2563;52.242;7.956;2023-05-14T09:49:16;100995.03;;;24.93;90.09
5574;BME280;2563;52.242;7.956;2023-05-14T09:51:42;100996.47;;;24.97;88.15
5574;BME280;2563;52.242;7.956;2023-05-14T09:54:08;100994.91;;;24.72;89.82
5574;BME280;2563;52.242;7.956;2023-05-14T09:56:34;100999.47;;;24.81;89.52
5574;BME280;2563;52.242;7.956;2023-05-14T09:59:00;100986.56;;;24.42;89.33
5574;BME280;2563;52.242;7.956;2023-05-14T10:01:28;100986.88;;;24.73;89.60
5574;BME280;2563;52.242;7.956;2023-05-14T10:03:54;100973.91;;;24.59;88.42
5574;BME280;2563;52.242;7.956;2023-05-14T10:06:32;100980.75;;;24.50;89.03
5574;BME280;2563;52.242;7.956;2023-05-14T10:09:04;100980.41;;;25.11;85.24
5574;BME280;2563;52.242;7.956;2023-05-14T10:11:33;100968.91;;;25.46;84.37
5574;BME280;2563;52.242;7.956;2023-05-14T10:14:28;100979.25;;;25.81;87.52
5574;BME280;2563;52.242;7.956;2023-05-14T10:16:58;100961.91;;;25.67;83.18
5574;BME280;2563;52.242;7.956;2023-05-14T10:19:25;100962.09;;;26.29;86.87
5574;BME280;2563;52.242;7.956;2023-05-14T10:22:04;100965.66;;;25.54;84.55
5574;BME280;2563;52.242;7.956;2023-05-14T10:24:31;100964.94;;;25.95;83.27
5574;BME280;2563;52.242;7.956;2023-05-14T10:26:57;100960.50;;;25.52;83.62
5574;BME280;2563;52.242;7.956;2023-05-14T10:29:36;100960.13;;;25.57;85.93
5574;BME280;2563;52.242;7.956;2023-05-14T10:32:06;100956.66;;;25.45;87.07
5574;BME280;2563;52.242;7.956;2023-05-14T10:34:33;100948.41;;;25.93;89.59
5574;BME280;2563;52.242;7.956;2023-05-14T10:37:03;100960.19;;;25.66;89.63
5574;BME280;2563;52.242;7.956;2023-05-14T10:40:00;100952.25;;;25.78;88.23
5574;BME280;2563;52.242;7.956;2023-05-14T10:47:21;100944.63;;;25.31;85.24
5574;BME280;2563;52.242;7.956;2023-05-14T10:49:47;100944.94;;;25.49;87.28
5574;BME280;2563;52.242;7.956;2023-05-14T10:52:18;100942.75;;;25.54;87.56
5574;BME280;2563;52.242;7.956;2023-05-14T10:57:19;100926.47;;;26.14;87.86
5574;BME280;2563;52.242;7.956;2023-05-14T10:59:49;100922.50;;;26.71;84.88
5574;BME280;2563;52.242;7.956;2023-05-14T11:02:19;100922.44;;;26.61;82.23
5574;BME280;2563;52.242;7.956;2023-05-14T11:07:19;100920.97;;;26.26;79.10
5574;BME280;2563;52.242;7.956;2023-05-14T11:09:47;100921.19;;;26.35;81.09
5574;BME280;2563;52.242;7.956;2023-05-14T11:12:13;100927.41;;;26.55;79.33
5574;BME280;2563;52.242;7.956;2023-05-14T11:14:38;100916.41;;;27.21;77.31
5574;BME280;2563;52.242;7.956;2023-05-14T11:17:04;100921.34;;;26.43;77.16
5574;BME280;2563;52.242;7.956;2023-05-14T11:19:30;100916.66;;;25.40;76.16
5574;BME280;2563;52.242;7.956;2023-05-14T11:21:55;100913.03;;;25.96;78.21
5574;BME280;2563;52.242;7.956;2023-05-14T11:24:21;100912.56;;;26.94;75.61
5574;BME280;2563;52.242;7.956;2023-05-14T11:26:46;100914.09;;;26.87;76.17
5574;BME280;2563;52.242;7.956;2023-05-14T11:29:11;100911.19;;;26.59;77.29
5574;BME280;2563;52.242;7.956;2023-05-14T11:31:37;100903.47;;;26.25;74.81
5574;BME280;2563;52.242;7.956;2023-05-14T11:34:02;100895.06;;;26.62;75.43
5574;BME280;2563;52.242;7.956;2023-05-14T11:36:29;100894.47;;;25.54;73.07
5574;BME280;2563;52.242;7.956;2023-05-14T11:38:55;100898.31;;;26.24;77.03
5574;BME280;2563;52.242;7.956;2023-05-14T11:41:20;100898.41;;;26.64;74.97
5574;BME280;2563;52.242;7.956;2023-05-14T11:43:47;100894.09;;;25.91;76.77
5574;BME280;2563;52.242;7.956;2023-05-14T11:46:16;100893.13;;;26.13;74.53
5574;BME280;2563;52.242;7.956;2023-05-14T11:48:42;100882.47;;;26.45;74.08
5574;BME280;2563;52.242;7.956;2023-05-14T11:51:08;100882.50;;;26.24;72.63
5574;BME280;2563;52.242;7.956;2023-05-14T11:53:33;100878.66;;;26.59;70.90
5574;BME280;2563;52.242;7.956;2023-05-14T11:55:58;100878.09;;;26.03;69.42
5574;BME280;2563;52.242;7.956;2023-05-14T11:58:24;100877.72;;;26.39;70.75
5574;BME280;2563;52.242;7.956;2023-05-14T12:00:51;100881.09;;;26.20;68.44
5574;BME280;2563;52.242;7.956;2023-05-14T12:03:20;100874.63;;;26.34;68.11
5574;BME280;2563;52.242;7.956;2023-05-14T12:06:00;100871.59;;;26.38;64.88
5574;BME280;2563;52.242;7.956;2023-05-14T12:08:30;100867.06;;;26.90;62.75
5574;BME280;2563;52.242;7.956;2023-05-14T12:10:57;100864.63;;;27.08;62.85
5574;BME280;2563;52.242;7.956;2023-05-14T12:13:27;100875.03;;;26.60;63.92
5574;BME280;2563;52.242;7.956;2023-05-14T12:15:54;100865.78;;;26.44;64.57
5574;BME280;2563;52.242;7.956;2023-05-14T12:18:21;100866.81;;;26.01;66.43
5574;BME280;2563;52.242;7.956;2023-05-14T12:20:47;100859.75;;;26.33;65.65
5574;BME280;2563;52.242;7.956;2023-05-14T12:23:13;100859.06;;;26.61;69.37
5574;BME280;2563;52.242;7.956;2023-05-14T12:25:39;100851.13;;;27.02;69.58
5574;BME280;2563;52.242;7.956;2023-05-14T12:28:15;100859.47;;;26.57;66.97
5574;BME280;2563;52.242;7.956;2023-05-14T12:30:40;100852.47;;;25.94;68.63
5574;BME280;2563;52.242;7.956;2023-05-14T12:33:05;100857.56;;;25.10;70.45
5574;BME280;2563;52.242;7.956;2023-05-14T12:35:31;100852.09;;;24.46;73.83
5574;BME280;2563;52.242;7.956;2023-05-14T12:37:57;100848.31;;;25.16;77.94
5574;BME280;2563;52.242;7.956;2023-05-14T12:40:22;100851.50;;;24.19;77.89
5574;BME280;2563;52.242;7.956;2023-05-14T12:42:48;100853.13;;;23.98;77.95
5574;BME280;2563;52.242;7.956;2023-05-14T12:45:13;100842.53;;;23.16;79.47
5574;BME280;2563;52.242;7.956;2023-05-14T12:47:38;100835.13;;;24.83;81.69
5574;BME280;2563;52.242;7.956;2023-05-14T12:50:04;100835.78;;;24.97;80.05
5574;BME280;2563;52.242;7.956;2023-05-14T12:52:30;100827.31;;;26.51;78.25
5574;BME280;2563;52.242;7.956;2023-05-14T12:54:55;100829.97;;;26.51;75.20
5574;BME280;2563;52.242;7.956;2023-05-14T12:57:21;100814.97;;;26.21;74.36
5574;BME280;2563;52.242;7.956;2023-05-14T12:59:46;100816.22;;;27.17;73.82
5574;BME280;2563;52.242;7.956;2023-05-14T13:02:11;100813.59;;;26.58;70.52
5574;BME280;2563;52.242;7.956;2023-05-14T13:04:37;100818.94;;;26.06;72.53
5574;BME280;2563;52.242;7.956;2023-05-14T13:07:02;100813.78;;;25.62;73.18
5574;BME280;2563;52.242;7.956;2023-05-14T13:09:27;100819.03;;;25.41;73.79
5574;BME280;2563;52.242;7.956;2023-05-14T13:11:53;100809.41;;;26.15;75.18
5574;BME280;2563;52.242;7.956;2023-05-14T13:14:18;100795.94;;;26.48;72.53
5574;BME280;2563;52.242;7.956;2023-05-14T13:16:44;100805.56;;;26.28;72.32